sensor_id;sensor_type;location;lat;lon;timestamp;temperature;humidity
12408;DHT22;6268;48.188;17.134;2022-11-20T00:02:03;2.70;99.90
12408;DHT22;6268;48.188;17.134;2022-11-20T00:04:32;2.60;99.90
12408;DHT22;6268;48.188;17.134;2022-11-20T00:07:00;2.60;99.90
12408;DHT22;6268;48.188;17.134;2022-11-20T00:09:29;2.60;99.90
12408;DHT22;6268;48.188;17.134;2022-11-20T00:11:59;2.70;99.90
12408;DHT22;6268;48.188;17.134;2022-11-20T00:14:28;2.70;99.90
12408;DHT22;6268;48.188;17.134;2022-11-20T00:16:57;2.70;99.90
12408;DHT22;6268;48.188;17.134;2022-11-20T00:19:25;2.70;99.90
12408;DHT22;6268;48.188;17.134;2022-11-20T00:21:54;2.70;99.90
12408;DHT22;6268;48.188;17.134;2022-11-20T00:24:23;2.70;99.90
12408;DHT22;6268;48.188;17.134;2022-11-20T00:26:52;2.70;99.90
12408;DHT22;6268;48.188;17.134;2022-11-20T00:29:22;2.80;99.90
12408;DHT22;6268;48.188;17.134;2022-11-20T00:31:50;2.80;99.90
12408;DHT22;6268;48.188;17.134;2022-11-20T00:34:19;2.90;99.90
12408;DHT22;6268;48.188;17.134;2022-11-20T00:36:47;2.90;99.90
12408;DHT22;6268;48.188;17.134;2022-11-20T00:39:16;2.90;99.90
12408;DHT22;6268;48.188;17.134;2022-11-20T00:41:45;2.80;99.90
12408;DHT22;6268;48.188;17.134;2022-11-20T00:44:14;2.80;99.90
12408;DHT22;6268;48.188;17.134;2022-11-20T00:46:44;2.80;99.90
12408;DHT22;6268;48.188;17.134;2022-11-20T00:49:12;2.80;99.90
12408;DHT22;6268;48.188;17.134;2022-11-20T00:51:41;2.90;99.90
12408;DHT22;6268;48.188;17.134;2022-11-20T00:54:10;2.90;99.90
12408;DHT22;6268;48.188;17.134;2022-11-20T00:56:38;2.90;99.90
12408;DHT22;6268;48.188;17.134;2022-11-20T00:59:08;2.90;99.90
12408;DHT22;6268;48.188;17.134;2022-11-20T01:01:38;2.90;99.90
12408;DHT22;6268;48.188;17.134;2022-11-20T01:04:08;2.80;99.90
12408;DHT22;6268;48.188;17.134;2022-11-20T01:06:37;2.70;99.90
12408;DHT22;6268;48.188;17.134;2022-11-20T01:09:10;2.60;99.90
12408;DHT22;6268;48.188;17.134;2022-11-20T01:11:42;2.70;99.90
12408;DHT22;6268;48.188;17.134;2022-11-20T01:14:13;2.80;99.90
12408;DHT22;6268;48.188;17.134;2022-11-20T01:16:45;2.80;99.90
12408;DHT22;6268;48.188;17.134;2022-11-20T01:19:19;2.80;99.90
12408;DHT22;6268;48.188;17.134;2022-11-20T01:21:51;2.80;99.90
12408;DHT22;6268;48.188;17.134;2022-11-20T01:24:22;2.80;99.90
12408;DHT22;6268;48.188;17.134;2022-11-20T01:26:51;2.80;99.90
12408;DHT22;6268;48.188;17.134;2022-11-20T01:29:21;2.70;99.90
12408;DHT22;6268;48.188;17.134;2022-11-20T01:31:52;2.60;99.90
12408;DHT22;6268;48.188;17.134;2022-11-20T01:34:22;2.70;99.90
12408;DHT22;6268;48.188;17.134;2022-11-20T01:36:52;2.70;99.90
12408;DHT22;6268;48.188;17.134;2022-11-20T01:39:22;2.70;99.90
12408;DHT22;6268;48.188;17.134;2022-11-20T01:41:55;2.80;99.90
12408;DHT22;6268;48.188;17.134;2022-11-20T01:44:53;2.80;99.90
12408;DHT22;6268;48.188;17.134;2022-11-20T01:47:27;2.90;99.90
12408;DHT22;6268;48.188;17.134;2022-11-20T01:50:05;2.90;99.90
12408;DHT22;6268;48.188;17.134;2022-11-20T01:52:39;2.90;99.90
12408;DHT22;6268;48.188;17.134;2022-11-20T01:55:14;2.90;99.90
12408;DHT22;6268;48.188;17.134;2022-11-20T01:57:48;3.00;99.90
12408;DHT22;6268;48.188;17.134;2022-11-20T02:00:19;3.00;99.90
12408;DHT22;6268;48.188;17.134;2022-11-20T02:02:51;3.10;99.90
12408;DHT22;6268;48.188;17.134;2022-11-20T02:05:28;3.00;99.90
12408;DHT22;6268;48.188;17.134;2022-11-20T02:08:03;3.10;99.90
12408;DHT22;6268;48.188;17.134;2022-11-20T02:10:35;3.10;99.90
12408;DHT22;6268;48.188;17.134;2022-11-20T02:13:04;3.10;99.90
12408;DHT22;6268;48.188;17.134;2022-11-20T02:15:50;3.10;99.90
12408;DHT22;6268;48.188;17.134;2022-11-20T02:18:20;3.10;99.90
12408;DHT22;6268;48.188;17.134;2022-11-20T02:20:55;3.10;99.90
12408;DHT22;6268;48.188;17.134;2022-11-20T02:23:31;3.20;99.90
12408;DHT22;6268;48.188;17.134;2022-11-20T02:26:10;3.20;99.90
12408;DHT22;6268;48.188;17.134;2022-11-20T02:28:41;3.20;99.90
12408;DHT22;6268;48.188;17.134;2022-11-20T02:31:09;3.20;99.90
12408;DHT22;6268;48.188;17.134;2022-11-20T02:33:38;3.20;99.90
12408;DHT22;6268;48.188;17.134;2022-11-20T02:36:11;3.10;99.90
12408;DHT22;6268;48.188;17.134;2022-11-20T02:38:44;3.10;99.90
12408;DHT22;6268;48.188;17.134;2022-11-20T02:41:14;3.00;99.90
12408;DHT22;6268;48.188;17.134;2022-11-20T02:43:42;3.10;99.90
12408;DHT22;6268;48.188;17.134;2022-11-20T02:46:11;3.10;99.90
12408;DHT22;6268;48.188;17.134;2022-11-20T02:48:40;3.00;99.90
12408;DHT22;6268;48.188;17.134;2022-11-20T02:51:08;2.90;99.90
12408;DHT22;6268;48.188;17.134;2022-11-20T02:53:37;3.00;99.90
12408;DHT22;6268;48.188;17.134;2022-11-20T02:56:06;3.00;99.90
12408;DHT22;6268;48.188;17.134;2022-11-20T02:58:36;3.00;99.90
12408;DHT22;6268;48.188;17.134;2022-11-20T03:01:06;3.00;99.90
12408;DHT22;6268;48.188;17.134;2022-11-20T03:03:34;3.00;99.90
12408;DHT22;6268;48.188;17.134;2022-11-20T03:06:03;3.10;99.90
12408;DHT22;6268;48.188;17.134;2022-11-20T03:08:32;3.10;99.90
12408;DHT22;6268;48.188;17.134;2022-11-20T03:11:05;3.10;99.90
12408;DHT22;6268;48.188;17.134;2022-11-20T03:13:36;3.10;99.90
12408;DHT22;6268;48.188;17.134;2022-11-20T03:16:10;3.10;99.90
12408;DHT22;6268;48.188;17.134;2022-11-20T03:18:40;3.20;99.90
12408;DHT22;6268;48.188;17.134;2022-11-20T03:21:11;3.20;99.90
12408;DHT22;6268;48.188;17.134;2022-11-20T03:23:40;3.10;99.90
12408;DHT22;6268;48.188;17.134;2022-11-20T03:26:11;3.20;99.90
12408;DHT22;6268;48.188;17.134;2022-11-20T03:28:47;3.30;99.90
12408;DHT22;6268;48.188;17.134;2022-11-20T03:31:18;3.40;99.90
12408;DHT22;6268;48.188;17.134;2022-11-20T03:33:48;3.40;99.90
12408;DHT22;6268;48.188;17.134;2022-11-20T03:36:18;3.30;99.90
12408;DHT22;6268;48.188;17.134;2022-11-20T03:38:48;3.20;99.90
12408;DHT22;6268;48.188;17.134;2022-11-20T03:41:19;3.20;99.90
12408;DHT22;6268;48.188;17.134;2022-11-20T03:43:52;3.40;99.90
12408;DHT22;6268;48.188;17.134;2022-11-20T03:46:22;3.30;99.90
12408;DHT22;6268;48.188;17.134;2022-11-20T03:48:52;3.30;99.90
12408;DHT22;6268;48.188;17.134;2022-11-20T03:51:22;3.20;99.90
12408;DHT22;6268;48.188;17.134;2022-11-20T03:53:54;3.30;99.90
12408;DHT22;6268;48.188;17.134;2022-11-20T03:56:26;3.10;99.90
12408;DHT22;6268;48.188;17.134;2022-11-20T03:58:58;3.10;99.90
12408;DHT22;6268;48.188;17.134;2022-11-20T04:01:29;3.10;99.90
12408;DHT22;6268;48.188;17.134;2022-11-20T04:03:58;3.10;99.90
12408;DHT22;6268;48.188;17.134;2022-11-20T04:06:29;3.10;99.90
12408;DHT22;6268;48.188;17.134;2022-11-20T04:09:01;3.20;99.90
12408;DHT22;6268;48.188;17.134;2022-11-20T04:11:32;3.20;99.90
12408;DHT22;6268;48.188;17.134;2022-11-20T04:14:04;3.30;99.90
12408;DHT22;6268;48.188;17.134;2022-11-20T04:16:35;3.30;99.90
12408;DHT22;6268;48.188;17.134;2022-11-20T04:19:05;3.30;99.90
12408;DHT22;6268;48.188;17.134;2022-11-20T04:21:38;3.30;99.90
12408;DHT22;6268;48.188;17.134;2022-11-20T04:24:07;3.40;99.90
12408;DHT22;6268;48.188;17.134;2022-11-20T04:26:37;3.40;99.90
12408;DHT22;6268;48.188;17.134;2022-11-20T04:29:10;3.30;99.90
12408;DHT22;6268;48.188;17.134;2022-11-20T04:31:39;3.20;99.90
12408;DHT22;6268;48.188;17.134;2022-11-20T04:34:10;3.10;99.90
12408;DHT22;6268;48.188;17.134;2022-11-20T04:36:39;3.00;99.90
12408;DHT22;6268;48.188;17.134;2022-11-20T04:39:13;3.10;99.90
12408;DHT22;6268;48.188;17.134;2022-11-20T04:41:42;3.00;99.90
12408;DHT22;6268;48.188;17.134;2022-11-20T04:44:13;3.10;99.90
12408;DHT22;6268;48.188;17.134;2022-11-20T04:46:42;3.20;99.90
12408;DHT22;6268;48.188;17.134;2022-11-20T04:49:11;3.20;99.90
12408;DHT22;6268;48.188;17.134;2022-11-20T04:51:40;3.20;99.90
12408;DHT22;6268;48.188;17.134;2022-11-20T04:54:09;3.20;99.90
12408;DHT22;6268;48.188;17.134;2022-11-20T04:56:39;3.20;99.90
12408;DHT22;6268;48.188;17.134;2022-11-20T04:59:08;3.20;99.90
12408;DHT22;6268;48.188;17.134;2022-11-20T05:01:38;3.10;99.90
12408;DHT22;6268;48.188;17.134;2022-11-20T05:04:07;3.10;99.90
12408;DHT22;6268;48.188;17.134;2022-11-20T05:06:36;3.10;99.90
12408;DHT22;6268;48.188;17.134;2022-11-20T05:09:04;3.00;99.90
12408;DHT22;6268;48.188;17.134;2022-11-20T05:11:33;3.00;99.90
12408;DHT22;6268;48.188;17.134;2022-11-20T05:14:02;3.10;99.90
12408;DHT22;6268;48.188;17.134;2022-11-20T05:16:30;3.00;99.90
12408;DHT22;6268;48.188;17.134;2022-11-20T05:19:00;2.90;99.90
12408;DHT22;6268;48.188;17.134;2022-11-20T05:21:30;2.90;99.90
12408;DHT22;6268;48.188;17.134;2022-11-20T05:23:59;2.90;99.90
12408;DHT22;6268;48.188;17.134;2022-11-20T05:26:28;2.90;99.90
12408;DHT22;6268;48.188;17.134;2022-11-20T05:28:57;2.90;99.90
12408;DHT22;6268;48.188;17.134;2022-11-20T05:31:25;2.90;99.90
12408;DHT22;6268;48.188;17.134;2022-11-20T05:36:44;2.80;99.90
12408;DHT22;6268;48.188;17.134;2022-11-20T05:39:12;2.80;99.90
12408;DHT22;6268;48.188;17.134;2022-11-20T05:41:41;2.80;99.90
12408;DHT22;6268;48.188;17.134;2022-11-20T05:44:10;2.80;99.90
12408;DHT22;6268;48.188;17.134;2022-11-20T05:46:39;2.80;99.90
12408;DHT22;6268;48.188;17.134;2022-11-20T05:49:07;2.90;99.90
12408;DHT22;6268;48.188;17.134;2022-11-20T05:51:37;2.80;99.90
12408;DHT22;6268;48.188;17.134;2022-11-20T05:54:06;2.80;99.90
12408;DHT22;6268;48.188;17.134;2022-11-20T05:56:35;2.90;99.90
12408;DHT22;6268;48.188;17.134;2022-11-20T05:59:03;2.90;99.90
12408;DHT22;6268;48.188;17.134;2022-11-20T06:01:32;2.90;99.90
12408;DHT22;6268;48.188;17.134;2022-11-20T06:04:02;2.90;99.90
12408;DHT22;6268;48.188;17.134;2022-11-20T06:06:31;2.80;99.90
12408;DHT22;6268;48.188;17.134;2022-11-20T06:09:01;2.90;99.90
12408;DHT22;6268;48.188;17.134;2022-11-20T06:11:30;2.90;99.90
12408;DHT22;6268;48.188;17.134;2022-11-20T06:13:58;2.90;99.90
12408;DHT22;6268;48.188;17.134;2022-11-20T06:16:27;2.90;99.90
12408;DHT22;6268;48.188;17.134;2022-11-20T06:18:56;2.90;99.90
12408;DHT22;6268;48.188;17.134;2022-11-20T06:21:24;2.90;99.90
12408;DHT22;6268;48.188;17.134;2022-11-20T06:23:53;2.90;99.90
12408;DHT22;6268;48.188;17.134;2022-11-20T06:26:24;2.90;99.90
12408;DHT22;6268;48.188;17.134;2022-11-20T06:28:54;2.80;99.90
12408;DHT22;6268;48.188;17.134;2022-11-20T06:31:25;2.80;99.90
12408;DHT22;6268;48.188;17.134;2022-11-20T06:33:55;2.80;99.90
12408;DHT22;6268;48.188;17.134;2022-11-20T06:36:23;2.80;99.90
12408;DHT22;6268;48.188;17.134;2022-11-20T06:38:52;2.80;99.90
12408;DHT22;6268;48.188;17.134;2022-11-20T06:41:23;2.90;99.90
12408;DHT22;6268;48.188;17.134;2022-11-20T06:43:52;3.00;99.90
12408;DHT22;6268;48.188;17.134;2022-11-20T06:46:20;3.00;99.90
12408;DHT22;6268;48.188;17.134;2022-11-20T06:48:50;2.90;99.90
12408;DHT22;6268;48.188;17.134;2022-11-20T06:51:18;2.90;99.90
12408;DHT22;6268;48.188;17.134;2022-11-20T06:53:48;3.00;99.90
12408;DHT22;6268;48.188;17.134;2022-11-20T06:56:17;3.00;99.90
12408;DHT22;6268;48.188;17.134;2022-11-20T06:58:47;2.90;99.90
12408;DHT22;6268;48.188;17.134;2022-11-20T07:01:16;3.00;99.90
12408;DHT22;6268;48.188;17.134;2022-11-20T07:03:44;3.00;99.90
12408;DHT22;6268;48.188;17.134;2022-11-20T07:06:20;3.10;99.90
12408;DHT22;6268;48.188;17.134;2022-11-20T07:08:50;3.20;99.90
12408;DHT22;6268;48.188;17.134;2022-11-20T07:11:19;3.20;99.90
12408;DHT22;6268;48.188;17.134;2022-11-20T07:13:49;3.20;99.90
12408;DHT22;6268;48.188;17.134;2022-11-20T07:16:18;3.30;99.90
12408;DHT22;6268;48.188;17.134;2022-11-20T07:18:46;3.30;99.90
12408;DHT22;6268;48.188;17.134;2022-11-20T07:21:17;3.40;99.90
12408;DHT22;6268;48.188;17.134;2022-11-20T07:23:46;3.40;99.90
12408;DHT22;6268;48.188;17.134;2022-11-20T07:26:15;3.40;99.90
12408;DHT22;6268;48.188;17.134;2022-11-20T07:28:44;3.40;99.90
12408;DHT22;6268;48.188;17.134;2022-11-20T07:31:15;3.40;99.90
12408;DHT22;6268;48.188;17.134;2022-11-20T07:33:45;3.40;99.90
12408;DHT22;6268;48.188;17.134;2022-11-20T07:36:14;3.40;99.90
12408;DHT22;6268;48.188;17.134;2022-11-20T07:38:43;3.40;99.90
12408;DHT22;6268;48.188;17.134;2022-11-20T07:41:11;3.40;99.90
12408;DHT22;6268;48.188;17.134;2022-11-20T07:43:40;3.40;99.90
12408;DHT22;6268;48.188;17.134;2022-11-20T07:46:09;3.40;99.90
12408;DHT22;6268;48.188;17.134;2022-11-20T07:48:39;3.40;99.90
12408;DHT22;6268;48.188;17.134;2022-11-20T07:51:08;3.50;99.90
12408;DHT22;6268;48.188;17.134;2022-11-20T07:53:36;3.50;99.90
12408;DHT22;6268;48.188;17.134;2022-11-20T07:56:05;3.50;99.90
12408;DHT22;6268;48.188;17.134;2022-11-20T07:58:34;3.40;99.90
12408;DHT22;6268;48.188;17.134;2022-11-20T08:01:04;3.40;99.90
12408;DHT22;6268;48.188;17.134;2022-11-20T08:03:33;3.50;99.90
12408;DHT22;6268;48.188;17.134;2022-11-20T08:06:06;3.50;99.90
12408;DHT22;6268;48.188;17.134;2022-11-20T08:08:36;3.50;99.90
12408;DHT22;6268;48.188;17.134;2022-11-20T08:11:09;3.50;99.90
12408;DHT22;6268;48.188;17.134;2022-11-20T08:13:55;3.50;99.90
12408;DHT22;6268;48.188;17.134;2022-11-20T08:16:44;3.50;99.90
12408;DHT22;6268;48.188;17.134;2022-11-20T08:19:14;3.50;99.90
12408;DHT22;6268;48.188;17.134;2022-11-20T08:21:45;3.40;99.90
12408;DHT22;6268;48.188;17.134;2022-11-20T08:24:14;3.40;99.90
12408;DHT22;6268;48.188;17.134;2022-11-20T08:26:42;3.50;99.90
12408;DHT22;6268;48.188;17.134;2022-11-20T08:29:11;3.50;99.90
12408;DHT22;6268;48.188;17.134;2022-11-20T08:31:40;3.60;99.90
12408;DHT22;6268;48.188;17.134;2022-11-20T08:34:08;3.60;99.90
12408;DHT22;6268;48.188;17.134;2022-11-20T08:36:45;3.60;99.90
12408;DHT22;6268;48.188;17.134;2022-11-20T08:39:14;3.60;99.90
12408;DHT22;6268;48.188;17.134;2022-11-20T08:41:43;3.60;99.90
12408;DHT22;6268;48.188;17.134;2022-11-20T08:44:11;3.60;99.90
12408;DHT22;6268;48.188;17.134;2022-11-20T08:46:41;3.50;99.90
12408;DHT22;6268;48.188;17.134;2022-11-20T08:49:12;3.60;99.90
12408;DHT22;6268;48.188;17.134;2022-11-20T08:51:42;3.50;99.90
12408;DHT22;6268;48.188;17.134;2022-11-20T08:54:12;3.70;99.90
12408;DHT22;6268;48.188;17.134;2022-11-20T08:56:40;3.80;99.90
12408;DHT22;6268;48.188;17.134;2022-11-20T08:59:09;3.80;99.90
12408;DHT22;6268;48.188;17.134;2022-11-20T09:01:58;3.90;99.90
12408;DHT22;6268;48.188;17.134;2022-11-20T09:04:26;3.80;99.90
12408;DHT22;6268;48.188;17.134;2022-11-20T09:06:55;3.90;99.90
12408;DHT22;6268;48.188;17.134;2022-11-20T09:09:25;4.10;99.90
12408;DHT22;6268;48.188;17.134;2022-11-20T09:11:54;4.00;99.90
12408;DHT22;6268;48.188;17.134;2022-11-20T09:14:22;4.10;99.90
12408;DHT22;6268;48.188;17.134;2022-11-20T09:16:57;4.20;99.90
12408;DHT22;6268;48.188;17.134;2022-11-20T09:19:26;4.20;99.90
12408;DHT22;6268;48.188;17.134;2022-11-20T09:22:01;4.30;99.90
12408;DHT22;6268;48.188;17.134;2022-11-20T09:24:31;4.30;99.90
12408;DHT22;6268;48.188;17.134;2022-11-20T09:27:03;4.40;99.90
12408;DHT22;6268;48.188;17.134;2022-11-20T09:29:32;4.40;99.90
12408;DHT22;6268;48.188;17.134;2022-11-20T09:32:00;4.50;99.90
12408;DHT22;6268;48.188;17.134;2022-11-20T09:34:29;4.60;99.90
12408;DHT22;6268;48.188;17.134;2022-11-20T09:36:58;4.60;99.90
12408;DHT22;6268;48.188;17.134;2022-11-20T09:39:33;4.80;99.90
12408;DHT22;6268;48.188;17.134;2022-11-20T09:42:20;5.00;99.90
12408;DHT22;6268;48.188;17.134;2022-11-20T09:45:18;5.10;99.90
12408;DHT22;6268;48.188;17.134;2022-11-20T09:48:11;5.30;99.90
12408;DHT22;6268;48.188;17.134;2022-11-20T09:51:05;5.30;99.90
12408;DHT22;6268;48.188;17.134;2022-11-20T09:53:52;5.40;99.90
12408;DHT22;6268;48.188;17.134;2022-11-20T09:56:37;5.60;99.90
12408;DHT22;6268;48.188;17.134;2022-11-20T09:59:20;5.70;99.90
12408;DHT22;6268;48.188;17.134;2022-11-20T10:01:58;5.60;99.90
12408;DHT22;6268;48.188;17.134;2022-11-20T10:04:31;5.50;99.90
12408;DHT22;6268;48.188;17.134;2022-11-20T10:07:13;5.50;99.90
12408;DHT22;6268;48.188;17.134;2022-11-20T10:10:01;5.40;99.90
12408;DHT22;6268;48.188;17.134;2022-11-20T10:12:44;5.40;99.90
12408;DHT22;6268;48.188;17.134;2022-11-20T10:15:29;5.30;99.90
12408;DHT22;6268;48.188;17.134;2022-11-20T10:18:13;5.20;99.90
12408;DHT22;6268;48.188;17.134;2022-11-20T10:20:53;5.00;99.90
12408;DHT22;6268;48.188;17.134;2022-11-20T10:23:45;4.90;99.90
12408;DHT22;6268;48.188;17.134;2022-11-20T10:26:31;4.90;99.90
12408;DHT22;6268;48.188;17.134;2022-11-20T10:29:14;4.90;99.90
12408;DHT22;6268;48.188;17.134;2022-11-20T10:31:47;4.90;99.90
12408;DHT22;6268;48.188;17.134;2022-11-20T10:34:26;4.90;99.90
12408;DHT22;6268;48.188;17.134;2022-11-20T10:37:01;4.90;99.90
12408;DHT22;6268;48.188;17.134;2022-11-20T10:39:36;4.90;99.90
12408;DHT22;6268;48.188;17.134;2022-11-20T10:42:14;4.90;99.90
12408;DHT22;6268;48.188;17.134;2022-11-20T10:44:52;4.80;99.90
12408;DHT22;6268;48.188;17.134;2022-11-20T10:47:33;4.80;99.90
12408;DHT22;6268;48.188;17.134;2022-11-20T10:50:09;4.90;99.90
12408;DHT22;6268;48.188;17.134;2022-11-20T10:52:55;4.90;99.90
12408;DHT22;6268;48.188;17.134;2022-11-20T10:55:33;5.00;99.90
12408;DHT22;6268;48.188;17.134;2022-11-20T10:58:16;5.00;99.90
12408;DHT22;6268;48.188;17.134;2022-11-20T11:01:04;5.10;99.90
12408;DHT22;6268;48.188;17.134;2022-11-20T11:03:33;5.20;99.90
12408;DHT22;6268;48.188;17.134;2022-11-20T11:06:07;5.10;99.90
12408;DHT22;6268;48.188;17.134;2022-11-20T11:08:44;5.10;99.90
12408;DHT22;6268;48.188;17.134;2022-11-20T11:11:21;5.00;99.90
12408;DHT22;6268;48.188;17.134;2022-11-20T11:13:51;5.00;99.90
12408;DHT22;6268;48.188;17.134;2022-11-20T11:16:23;5.00;99.90
12408;DHT22;6268;48.188;17.134;2022-11-20T11:19:04;5.10;99.90
12408;DHT22;6268;48.188;17.134;2022-11-20T11:21:33;5.20;99.90
12408;DHT22;6268;48.188;17.134;2022-11-20T11:24:04;5.20;99.90
12408;DHT22;6268;48.188;17.134;2022-11-20T11:26:56;5.20;99.90
12408;DHT22;6268;48.188;17.134;2022-11-20T11:29:26;5.20;99.90
12408;DHT22;6268;48.188;17.134;2022-11-20T11:32:07;5.20;99.90
12408;DHT22;6268;48.188;17.134;2022-11-20T11:34:39;5.20;99.90
12408;DHT22;6268;48.188;17.134;2022-11-20T11:37:14;5.30;99.90
12408;DHT22;6268;48.188;17.134;2022-11-20T11:39:48;5.30;99.90
12408;DHT22;6268;48.188;17.134;2022-11-20T11:42:41;5.30;99.90
12408;DHT22;6268;48.188;17.134;2022-11-20T11:45:14;5.30;99.90
12408;DHT22;6268;48.188;17.134;2022-11-20T11:47:46;5.30;99.90
12408;DHT22;6268;48.188;17.134;2022-11-20T11:50:18;5.30;99.90
12408;DHT22;6268;48.188;17.134;2022-11-20T11:53:05;5.30;99.90
12408;DHT22;6268;48.188;17.134;2022-11-20T11:55:43;5.40;99.90
12408;DHT22;6268;48.188;17.134;2022-11-20T11:58:20;5.40;99.90
12408;DHT22;6268;48.188;17.134;2022-11-20T12:01:04;5.40;99.90
12408;DHT22;6268;48.188;17.134;2022-11-20T12:03:49;5.40;99.90
12408;DHT22;6268;48.188;17.134;2022-11-20T12:06:25;5.50;99.90
12408;DHT22;6268;48.188;17.134;2022-11-20T12:09:01;5.50;99.90
12408;DHT22;6268;48.188;17.134;2022-11-20T12:11:35;5.60;99.90
12408;DHT22;6268;48.188;17.134;2022-11-20T12:14:14;5.50;99.90
12408;DHT22;6268;48.188;17.134;2022-11-20T12:16:46;5.60;99.90
12408;DHT22;6268;48.188;17.134;2022-11-20T12:19:17;5.60;99.90
12408;DHT22;6268;48.188;17.134;2022-11-20T12:21:54;5.70;99.90
12408;DHT22;6268;48.188;17.134;2022-11-20T12:24:39;5.80;99.90
12408;DHT22;6268;48.188;17.134;2022-11-20T12:30:33;5.90;99.90
12408;DHT22;6268;48.188;17.134;2022-11-20T12:33:40;5.90;99.90
12408;DHT22;6268;48.188;17.134;2022-11-20T12:36:36;5.80;99.90
12408;DHT22;6268;48.188;17.134;2022-11-20T12:39:35;5.80;99.90
12408;DHT22;6268;48.188;17.134;2022-11-20T12:42:50;5.80;99.90
12408;DHT22;6268;48.188;17.134;2022-11-20T12:45:56;5.90;99.90
12408;DHT22;6268;48.188;17.134;2022-11-20T12:49:00;5.80;99.90
12408;DHT22;6268;48.188;17.134;2022-11-20T12:55:03;5.90;99.90
12408;DHT22;6268;48.188;17.134;2022-11-20T12:57:47;5.80;99.90
12408;DHT22;6268;48.188;17.134;2022-11-20T13:00:22;5.80;99.90
12408;DHT22;6268;48.188;17.134;2022-11-20T13:03:17;5.80;99.90
12408;DHT22;6268;48.188;17.134;2022-11-20T13:06:10;5.80;99.90
12408;DHT22;6268;48.188;17.134;2022-11-20T13:08:48;5.90;99.90
12408;DHT22;6268;48.188;17.134;2022-11-20T13:11:26;5.90;99.90
12408;DHT22;6268;48.188;17.134;2022-11-20T13:14:17;5.90;99.90
12408;DHT22;6268;48.188;17.134;2022-11-20T13:16:58;5.90;99.90
12408;DHT22;6268;48.188;17.134;2022-11-20T13:19:33;5.90;99.90
12408;DHT22;6268;48.188;17.134;2022-11-20T13:22:02;5.90;99.90
12408;DHT22;6268;48.188;17.134;2022-11-20T13:24:32;5.80;99.90
12408;DHT22;6268;48.188;17.134;2022-11-20T13:27:17;5.80;99.90
12408;DHT22;6268;48.188;17.134;2022-11-20T13:30:00;5.80;99.90
12408;DHT22;6268;48.188;17.134;2022-11-20T13:32:48;5.80;99.90
12408;DHT22;6268;48.188;17.134;2022-11-20T13:35:27;5.80;99.90
12408;DHT22;6268;48.188;17.134;2022-11-20T13:38:07;5.70;99.90
12408;DHT22;6268;48.188;17.134;2022-11-20T13:40:50;5.70;99.90
12408;DHT22;6268;48.188;17.134;2022-11-20T13:43:26;5.70;99.90
12408;DHT22;6268;48.188;17.134;2022-11-20T13:46:04;5.70;99.90
12408;DHT22;6268;48.188;17.134;2022-11-20T13:48:38;5.70;99.90
12408;DHT22;6268;48.188;17.134;2022-11-20T13:51:20;5.80;99.90
12408;DHT22;6268;48.188;17.134;2022-11-20T13:54:11;5.90;99.90
12408;DHT22;6268;48.188;17.134;2022-11-20T13:57:13;6.00;99.90
12408;DHT22;6268;48.188;17.134;2022-11-20T13:59:57;6.00;99.90
12408;DHT22;6268;48.188;17.134;2022-11-20T14:02:33;6.10;99.90
12408;DHT22;6268;48.188;17.134;2022-11-20T14:05:04;6.10;99.90
12408;DHT22;6268;48.188;17.134;2022-11-20T14:07:37;6.10;99.90
12408;DHT22;6268;48.188;17.134;2022-11-20T14:10:20;6.10;99.90
12408;DHT22;6268;48.188;17.134;2022-11-20T14:13:09;6.00;99.90
12408;DHT22;6268;48.188;17.134;2022-11-20T14:15:38;6.00;99.90
12408;DHT22;6268;48.188;17.134;2022-11-20T14:18:13;6.00;99.90
12408;DHT22;6268;48.188;17.134;2022-11-20T14:20:43;6.00;99.90
12408;DHT22;6268;48.188;17.134;2022-11-20T14:23:12;6.00;99.90
12408;DHT22;6268;48.188;17.134;2022-11-20T14:25:56;6.00;99.90
12408;DHT22;6268;48.188;17.134;2022-11-20T14:28:28;6.00;99.90
12408;DHT22;6268;48.188;17.134;2022-11-20T14:30:58;6.00;99.90
12408;DHT22;6268;48.188;17.134;2022-11-20T14:33:27;5.90;99.90
12408;DHT22;6268;48.188;17.134;2022-11-20T14:35:57;5.90;99.90
12408;DHT22;6268;48.188;17.134;2022-11-20T14:38:28;5.80;99.90
12408;DHT22;6268;48.188;17.134;2022-11-20T14:41:06;5.80;99.90
12408;DHT22;6268;48.188;17.134;2022-11-20T14:43:37;5.70;99.90
12408;DHT22;6268;48.188;17.134;2022-11-20T14:46:08;5.70;99.90
12408;DHT22;6268;48.188;17.134;2022-11-20T14:48:40;5.70;99.90
12408;DHT22;6268;48.188;17.134;2022-11-20T14:51:23;5.60;99.90
12408;DHT22;6268;48.188;17.134;2022-11-20T14:53:59;5.60;99.90
12408;DHT22;6268;48.188;17.134;2022-11-20T14:56:36;5.60;99.90
12408;DHT22;6268;48.188;17.134;2022-11-20T14:59:07;5.60;99.90
12408;DHT22;6268;48.188;17.134;2022-11-20T15:01:36;5.60;99.90
12408;DHT22;6268;48.188;17.134;2022-11-20T15:04:08;5.60;99.90
12408;DHT22;6268;48.188;17.134;2022-11-20T15:06:49;5.60;99.90
12408;DHT22;6268;48.188;17.134;2022-11-20T15:09:18;5.50;99.90
12408;DHT22;6268;48.188;17.134;2022-11-20T15:11:55;5.40;99.90
12408;DHT22;6268;48.188;17.134;2022-11-20T15:14:28;5.40;99.90
12408;DHT22;6268;48.188;17.134;2022-11-20T15:16:59;5.40;99.90
12408;DHT22;6268;48.188;17.134;2022-11-20T15:19:28;5.30;99.90
12408;DHT22;6268;48.188;17.134;2022-11-20T15:21:57;5.30;99.90
12408;DHT22;6268;48.188;17.134;2022-11-20T15:24:26;5.30;99.90
12408;DHT22;6268;48.188;17.134;2022-11-20T15:26:54;5.30;99.90
12408;DHT22;6268;48.188;17.134;2022-11-20T15:29:23;5.20;99.90
12408;DHT22;6268;48.188;17.134;2022-11-20T15:31:54;5.10;99.90
12408;DHT22;6268;48.188;17.134;2022-11-20T15:34:23;5.10;99.90
12408;DHT22;6268;48.188;17.134;2022-11-20T15:36:52;5.00;99.90
12408;DHT22;6268;48.188;17.134;2022-11-20T15:39:21;5.00;99.90
12408;DHT22;6268;48.188;17.134;2022-11-20T15:41:50;5.00;99.90
12408;DHT22;6268;48.188;17.134;2022-11-20T15:44:18;5.00;99.90
12408;DHT22;6268;48.188;17.134;2022-11-20T15:46:47;4.90;99.90
12408;DHT22;6268;48.188;17.134;2022-11-20T15:49:17;4.90;99.90
12408;DHT22;6268;48.188;17.134;2022-11-20T15:51:49;4.90;99.90
12408;DHT22;6268;48.188;17.134;2022-11-20T15:54:21;4.80;99.90
12408;DHT22;6268;48.188;17.134;2022-11-20T15:56:51;4.80;99.90
12408;DHT22;6268;48.188;17.134;2022-11-20T15:59:20;4.70;99.90
12408;DHT22;6268;48.188;17.134;2022-11-20T16:01:49;4.70;99.90
12408;DHT22;6268;48.188;17.134;2022-11-20T16:04:19;4.70;99.90
12408;DHT22;6268;48.188;17.134;2022-11-20T16:06:48;4.70;99.90
12408;DHT22;6268;48.188;17.134;2022-11-20T16:09:17;4.70;99.90
12408;DHT22;6268;48.188;17.134;2022-11-20T16:11:45;4.70;99.90
12408;DHT22;6268;48.188;17.134;2022-11-20T16:14:14;4.60;99.90
12408;DHT22;6268;48.188;17.134;2022-11-20T16:17:00;4.70;99.90
12408;DHT22;6268;48.188;17.134;2022-11-20T16:19:30;4.70;99.90
12408;DHT22;6268;48.188;17.134;2022-11-20T16:21:59;4.70;99.90
12408;DHT22;6268;48.188;17.134;2022-11-20T16:24:29;4.70;99.90
12408;DHT22;6268;48.188;17.134;2022-11-20T16:26:58;4.70;99.90
12408;DHT22;6268;48.188;17.134;2022-11-20T16:29:26;4.70;99.90
12408;DHT22;6268;48.188;17.134;2022-11-20T16:31:56;4.70;99.90
12408;DHT22;6268;48.188;17.134;2022-11-20T16:34:25;4.60;99.90